Time;durP1;ratioP1;P1;durP2;ratioP2;P2;SDS_P1;SDS_P2;PMS_P1;PMS_P2;Temp;Humidity;BMP_temperature;BMP_pressure;BME280_temperature;BME280_humidity;BME280_pressure;Samples;Min_cycle;Max_cycle;Signal;HPM_P1;HPM_P2
2021/09/20 00:00:46;;;;;;;6.22;4.60;;;;;;;;;;4975483;28;20051;-63
2021/09/20 00:03:12;;;;;;;7.07;5.22;;;;;;;;;;4959082;28;20047;-65
2021/09/20 00:05:39;;;;;;;5.65;4.57;;;;;;;;;;4974892;28;20110;-64
2021/09/20 00:08:06;;;;;;;5.78;4.75;;;;;;;;;;4974938;28;20074;-64
2021/09/20 00:10:33;;;;;;;6.82;4.55;;;;;;;;;;4957943;28;20121;-65
2021/09/20 00:12:59;;;;;;;5.90;5.30;;;;;;;;;;4974675;28;20294;-65
2021/09/20 00:15:26;;;;;;;5.15;4.40;;;;;;;;;;4974574;28;20058;-65
2021/09/20 00:17:53;;;;;;;5.63;4.80;;;;;;;;;;4974624;28;20469;-65
2021/09/20 00:20:19;;;;;;;6.68;4.20;;;;;;;;;;4974569;28;20105;-64
2021/09/20 00:22:46;;;;;;;4.70;4.20;;;;;;;;;;4974525;28;20046;-65
2021/09/20 00:25:13;;;;;;;7.85;5.13;;;;;;;;;;4975141;28;20105;-65
2021/09/20 00:27:39;;;;;;;5.53;4.93;;;;;;;;;;4974357;28;20143;-65
2021/09/20 00:30:07;;;;;;;5.60;5.03;;;;;;;;;;4974090;28;20050;-64
2021/09/20 00:32:34;;;;;;;5.45;4.93;;;;;;;;;;4974254;28;20054;-64
2021/09/20 00:35:00;;;;;;;5.40;4.80;;;;;;;;;;4974336;28;20109;-64
2021/09/20 00:37:27;;;;;;;7.88;4.95;;;;;;;;;;4974261;28;20109;-65
2021/09/20 00:39:54;;;;;;;7.57;5.15;;;;;;;;;;4974197;28;20051;-64
2021/09/20 00:42:20;;;;;;;5.80;5.18;;;;;;;;;;4974164;28;20047;-64
2021/09/20 00:44:47;;;;;;;5.70;4.93;;;;;;;;;;4974013;28;20061;-64
2021/09/20 00:47:14;;;;;;;5.60;5.03;;;;;;;;;;4974383;28;20097;-65
2021/09/20 00:49:42;;;;;;;6.13;5.00;;;;;;;;;;4974080;28;20051;-65
2021/09/20 00:52:09;;;;;;;5.93;5.25;;;;;;;;;;4974143;28;20051;-65
2021/09/20 00:54:35;;;;;;;6.40;4.90;;;;;;;;;;4973982;28;20113;-65
2021/09/20 00:57:02;;;;;;;6.95;5.13;;;;;;;;;;4973817;28;20058;-64
2021/09/20 00:59:29;;;;;;;7.50;5.25;;;;;;;;;;4973668;28;20082;-65
2021/09/20 01:01:56;;;;;;;5.70;4.60;;;;;;;;;;4956626;28;20054;-65
2021/09/20 01:04:22;;;;;;;5.63;5.07;;;;;;;;;;4973767;28;20082;-64
2021/09/20 01:06:49;;;;;;;6.32;5.32;;;;;;;;;;4973062;28;20055;-65
2021/09/20 01:09:16;;;;;;;12.15;5.57;;;;;;;;;;4973565;28;20055;-65
2021/09/20 01:11:43;;;;;;;5.90;5.10;;;;;;;;;;4956403;28;20047;-65
2021/09/20 01:14:10;;;;;;;7.30;5.80;;;;;;;;;;4973525;28;20501;-65
2021/09/20 01:16:37;;;;;;;8.27;5.57;;;;;;;;;;4973499;28;20054;-65
2021/09/20 01:19:04;;;;;;;7.90;5.13;;;;;;;;;;4973385;28;20058;-65
2021/09/20 01:21:30;;;;;;;6.13;4.95;;;;;;;;;;4973428;28;20054;-65
2021/09/20 01:23:57;;;;;;;6.05;4.82;;;;;;;;;;4973442;28;20047;-65
2021/09/20 01:26:24;;;;;;;6.93;5.60;;;;;;;;;;4973394;28;20054;-65
2021/09/20 01:28:50;;;;;;;5.90;5.13;;;;;;;;;;4973135;28;20063;-65
2021/09/20 01:31:17;;;;;;;6.22;5.13;;;;;;;;;;4973423;28;20467;-65
2021/09/20 01:33:44;;;;;;;5.97;4.78;;;;;;;;;;4973194;28;20042;-65
2021/09/20 01:36:10;;;;;;;7.72;5.65;;;;;;;;;;4973179;28;20054;-65
2021/09/20 01:38:37;;;;;;;6.32;5.22;;;;;;;;;;4973093;28;20102;-65
2021/09/20 01:41:04;;;;;;;6.70;5.50;;;;;;;;;;4973247;28;20058;-65
2021/09/20 01:43:30;;;;;;;6.35;5.53;;;;;;;;;;4973199;28;20098;-65
2021/09/20 01:45:57;;;;;;;5.97;5.30;;;;;;;;;;4973259;28;20062;-65
2021/09/20 01:48:23;;;;;;;7.13;5.82;;;;;;;;;;4973237;28;20054;-64
2021/09/20 01:50:50;;;;;;;6.90;5.35;;;;;;;;;;4972809;28;20395;-64
2021/09/20 01:53:19;;;;;;;6.03;5.43;;;;;;;;;;4973023;28;20490;-64
2021/09/20 01:55:46;;;;;;;6.93;5.20;;;;;;;;;;4955791;28;20421;-64
2021/09/20 01:58:13;;;;;;;6.22;5.03;;;;;;;;;;4973012;28;20109;-64
2021/09/20 02:00:43;;;;;;;6.32;4.78;;;;;;;;;;4972780;28;20468;-64
2021/09/20 02:03:11;;;;;;;6.57;5.50;;;;;;;;;;4973032;28;20054;-64
2021/09/20 02:05:38;;;;;;;8.15;5.15;;;;;;;;;;4972663;28;20093;-64
2021/09/20 02:08:05;;;;;;;7.28;5.43;;;;;;;;;;4973029;28;20051;-64
2021/09/20 02:10:31;;;;;;;6.68;5.68;;;;;;;;;;4972812;28;20062;-64
2021/09/20 02:12:58;;;;;;;6.60;5.50;;;;;;;;;;4972779;28;20050;-63
2021/09/20 02:15:25;;;;;;;7.38;5.55;;;;;;;;;;4973021;28;20502;-65
2021/09/20 02:17:51;;;;;;;9.57;5.07;;;;;;;;;;4972784;28;20498;-65
2021/09/20 02:20:18;;;;;;;7.22;5.80;;;;;;;;;;4976608;28;20062;-65
2021/09/20 02:22:45;;;;;;;7.18;5.45;;;;;;;;;;4976700;28;20101;-64
2021/09/20 02:25:13;;;;;;;6.80;5.43;;;;;;;;;;4976856;28;20110;-65
2021/09/20 02:27:40;;;;;;;6.38;5.15;;;;;;;;;;4976560;28;20054;-65
2021/09/20 02:30:07;;;;;;;6.60;5.88;;;;;;;;;;4976619;28;20050;-65
2021/09/20 02:32:35;;;;;;;5.13;4.57;;;;;;;;;;4976791;28;20054;-65
2021/09/20 02:35:02;;;;;;;6.38;5.30;;;;;;;;;;4976528;28;20055;-65
2021/09/20 02:37:29;;;;;;;7.93;5.90;;;;;;;;;;4976384;28;20498;-65
2021/09/20 02:39:56;;;;;;;6.32;5.30;;;;;;;;;;4976154;28;20058;-65
2021/09/20 02:42:22;;;;;;;5.85;4.95;;;;;;;;;;4976488;28;20051;-65
2021/09/20 02:44:49;;;;;;;7.40;5.57;;;;;;;;;;4976305;28;20059;-65
2021/09/20 02:47:16;;;;;;;7.05;6.05;;;;;;;;;;4976199;28;20560;-65
2021/09/20 02:49:42;;;;;;;6.72;5.82;;;;;;;;;;4976082;28;20058;-65
2021/09/20 02:52:09;;;;;;;6.93;5.40;;;;;;;;;;4976215;28;20117;-65
2021/09/20 02:54:36;;;;;;;6.75;5.60;;;;;;;;;;4976231;28;20055;-65
2021/09/20 02:57:02;;;;;;;5.90;5.30;;;;;;;;;;4975961;28;20568;-65
2021/09/20 02:59:29;;;;;;;6.15;5.53;;;;;;;;;;4975925;28;20082;-65
2021/09/20 03:01:55;;;;;;;5.90;5.25;;;;;;;;;;4975911;28;20054;-65
2021/09/20 03:04:22;;;;;;;7.72;6.07;;;;;;;;;;4976084;28;20078;-65
2021/09/20 03:06:49;;;;;;;9.98;5.40;;;;;;;;;;4975766;28;20054;-65
2021/09/20 03:09:16;;;;;;;6.93;6.20;;;;;;;;;;4975987;28;20109;-65
2021/09/20 03:11:42;;;;;;;7.70;5.80;;;;;;;;;;4975759;28;20046;-64
2021/09/20 03:14:09;;;;;;;6.28;5.38;;;;;;;;;;4975703;28;20046;-65
2021/09/20 03:16:36;;;;;;;7.07;5.90;;;;;;;;;;4975647;28;20565;-64
2021/09/20 03:19:02;;;;;;;7.82;5.38;;;;;;;;;;4975580;28;20058;-64
2021/09/20 03:21:29;;;;;;;8.25;5.32;;;;;;;;;;4975711;28;20058;-65
2021/09/20 03:23:55;;;;;;;9.48;6.25;;;;;;;;;;4975573;28;20489;-65
2021/09/20 03:26:22;;;;;;;5.90;5.30;;;;;;;;;;4975436;28;20055;-64
2021/09/20 03:28:49;;;;;;;8.77;5.90;;;;;;;;;;4975353;28;20514;-64
2021/09/20 03:31:18;;;;;;;8.13;6.60;;;;;;;;;;4975024;28;20221;-65
2021/09/20 03:33:44;;;;;;;8.77;7.05;;;;;;;;;;4975264;28;20043;-64
2021/09/20 03:36:11;;;;;;;10.02;8.55;;;;;;;;;;4975479;28;20062;-65
2021/09/20 03:38:37;;;;;;;9.65;7.75;;;;;;;;;;4975245;28;20054;-65
2021/09/20 03:41:04;;;;;;;9.45;7.07;;;;;;;;;;4976302;28;20058;-65
2021/09/20 03:43:31;;;;;;;8.95;7.15;;;;;;;;;;4978031;28;20109;-65
2021/09/20 03:45:57;;;;;;;9.05;7.60;;;;;;;;;;4975121;28;20207;-65
2021/09/20 03:48:24;;;;;;;10.90;7.63;;;;;;;;;;4958189;28;20089;-65
2021/09/20 03:50:51;;;;;;;9.10;6.50;;;;;;;;;;4974967;28;20109;-65
2021/09/20 03:53:17;;;;;;;8.23;6.65;;;;;;;;;;4975280;28;20058;-65
2021/09/20 03:55:44;;;;;;;8.07;6.95;;;;;;;;;;4974935;28;20058;-65
2021/09/20 03:58:10;;;;;;;8.77;6.38;;;;;;;;;;4975239;28;20051;-66
2021/09/20 04:00:37;;;;;;;7.30;6.57;;;;;;;;;;4974669;28;20098;-65
2021/09/20 04:03:04;;;;;;;7.75;6.50;;;;;;;;;;4974929;28;20517;-65
2021/09/20 04:05:31;;;;;;;9.02;6.63;;;;;;;;;;4974907;28;20143;-65
2021/09/20 04:07:58;;;;;;;9.75;6.22;;;;;;;;;;4974727;28;20051;-65
2021/09/20 04:10:25;;;;;;;6.40;5.78;;;;;;;;;;4974697;28;20429;-65
2021/09/20 04:12:51;;;;;;;7.00;5.45;;;;;;;;;;4976583;28;20105;-65
2021/09/20 04:15:18;;;;;;;8.05;6.07;;;;;;;;;;4980367;28;20097;-65
2021/09/20 04:17:45;;;;;;;8.15;6.22;;;;;;;;;;4980138;28;20055;-65
2021/09/20 04:20:12;;;;;;;7.53;5.57;;;;;;;;;;4980760;28;20091;-64
2021/09/20 04:22:39;;;;;;;8.90;6.10;;;;;;;;;;4963334;28;20051;-65
2021/09/20 04:25:07;;;;;;;6.65;5.82;;;;;;;;;;4982389;28;20051;-65
2021/09/20 04:27:33;;;;;;;7.75;6.03;;;;;;;;;;4982097;28;20077;-64
2021/09/20 04:30:01;;;;;;;8.45;6.28;;;;;;;;;;4982679;28;20073;-64
2021/09/20 04:32:27;;;;;;;7.18;6.20;;;;;;;;;;4982045;28;20105;-65
2021/09/20 04:34:54;;;;;;;6.95;5.90;;;;;;;;;;4979999;28;20047;-65
2021/09/20 04:37:21;;;;;;;6.22;5.57;;;;;;;;;;4976397;28;20054;-65
2021/09/20 04:39:47;;;;;;;8.57;5.90;;;;;;;;;;4976259;28;20096;-64
2021/09/20 04:42:14;;;;;;;6.88;6.18;;;;;;;;;;4974483;28;20054;-66
2021/09/20 04:44:41;;;;;;;7.03;5.97;;;;;;;;;;4974178;28;20099;-65
2021/09/20 04:47:08;;;;;;;7.95;6.15;;;;;;;;;;4974128;28;20138;-65
2021/09/20 04:49:35;;;;;;;8.50;6.10;;;;;;;;;;4973902;28;20055;-65
2021/09/20 04:52:01;;;;;;;8.57;6.03;;;;;;;;;;4974092;28;20121;-66
2021/09/20 04:54:28;;;;;;;8.13;6.38;;;;;;;;;;4974416;28;20403;-65
2021/09/20 04:56:55;;;;;;;7.72;5.72;;;;;;;;;;4973862;28;20105;-66
2021/09/20 04:59:21;;;;;;;7.63;6.30;;;;;;;;;;4973729;28;20558;-66
2021/09/20 05:01:48;;;;;;;8.50;6.72;;;;;;;;;;4973733;28;20046;-65
2021/09/20 05:04:15;;;;;;;8.52;6.60;;;;;;;;;;4973888;28;20050;-66
2021/09/20 05:06:41;;;;;;;7.20;6.30;;;;;;;;;;4973581;28;20055;-66
2021/09/20 05:09:10;;;;;;;10.27;6.88;;;;;;;;;;4973514;28;20058;-64
2021/09/20 05:11:37;;;;;;;9.02;6.63;;;;;;;;;;4973637;28;20438;-66
2021/09/20 05:14:04;;;;;;;10.93;7.13;;;;;;;;;;4973522;28;20415;-66
2021/09/20 05:16:31;;;;;;;8.43;5.82;;;;;;;;;;4973600;28;20105;-66
2021/09/20 05:18:58;;;;;;;9.45;6.45;;;;;;;;;;4973336;28;20413;-66
2021/09/20 05:21:24;;;;;;;7.28;6.40;;;;;;;;;;4973442;28;20506;-65
2021/09/20 05:23:51;;;;;;;9.05;6.35;;;;;;;;;;4973364;28;20102;-65
2021/09/20 05:26:19;;;;;;;9.23;6.85;;;;;;;;;;4973329;28;20047;-65
2021/09/20 05:28:45;;;;;;;9.95;6.43;;;;;;;;;;4973268;28;20469;-65
2021/09/20 05:31:12;;;;;;;8.32;6.45;;;;;;;;;;4973328;28;20054;-65
2021/09/20 05:33:39;;;;;;;6.75;5.88;;;;;;;;;;4973250;28;20054;-65
2021/09/20 05:36:06;;;;;;;8.25;7.25;;;;;;;;;;4973251;28;20104;-65
2021/09/20 05:38:33;;;;;;;9.15;6.35;;;;;;;;;;4973243;28;20055;-64
2021/09/20 05:40:59;;;;;;;6.85;5.85;;;;;;;;;;4972988;28;20106;-65
2021/09/20 05:43:26;;;;;;;7.93;6.60;;;;;;;;;;4973160;28;20107;-64
2021/09/20 05:45:52;;;;;;;8.88;6.43;;;;;;;;;;4973099;28;20473;-64
2021/09/20 05:48:20;;;;;;;7.57;6.18;;;;;;;;;;4973141;28;20054;-64
2021/09/20 05:50:47;;;;;;;6.38;5.63;;;;;;;;;;4972876;28;20059;-64
2021/09/20 05:53:14;;;;;;;9.40;6.25;;;;;;;;;;4972728;28;20097;-65
2021/09/20 05:55:41;;;;;;;9.18;6.28;;;;;;;;;;4972949;28;20054;-65
2021/09/20 05:58:07;;;;;;;8.90;6.03;;;;;;;;;;4973188;28;20199;-65
2021/09/20 06:00:34;;;;;;;8.95;5.65;;;;;;;;;;4972853;28;20461;-64
2021/09/20 06:03:02;;;;;;;11.35;6.30;;;;;;;;;;4972950;28;20054;-64
2021/09/20 06:05:30;;;;;;;10.52;6.72;;;;;;;;;;4972712;28;20498;-65
2021/09/20 06:07:56;;;;;;;10.60;6.03;;;;;;;;;;4972872;28;20057;-65
2021/09/20 06:10:23;;;;;;;11.27;6.75;;;;;;;;;;4972774;28;20105;-65
2021/09/20 06:12:50;;;;;;;10.00;7.20;;;;;;;;;;4972843;28;20086;-64
2021/09/20 06:15:17;;;;;;;11.13;6.20;;;;;;;;;;4972994;28;20055;-65
2021/09/20 06:17:43;;;;;;;9.15;6.70;;;;;;;;;;4972832;28;20430;-65
2021/09/20 06:20:10;;;;;;;8.57;6.80;;;;;;;;;;4972753;28;20058;-64
2021/09/20 06:22:37;;;;;;;8.25;6.40;;;;;;;;;;4972744;28;20113;-65
2021/09/20 06:25:05;;;;;;;8.30;6.40;;;;;;;;;;4972885;28;20081;-65
2021/09/20 06:27:32;;;;;;;10.48;6.57;;;;;;;;;;4972682;28;20101;-64
2021/09/20 06:29:59;;;;;;;9.90;7.10;;;;;;;;;;4972528;28;20055;-64
2021/09/20 06:32:25;;;;;;;8.65;6.47;;;;;;;;;;4972768;28;20075;-64
2021/09/20 06:34:52;;;;;;;11.50;6.65;;;;;;;;;;4972572;28;20050;-64
2021/09/20 06:37:19;;;;;;;10.65;7.07;;;;;;;;;;4972562;28;20545;-65
2021/09/20 06:39:45;;;;;;;10.40;7.07;;;;;;;;;;4972368;28;20062;-64
2021/09/20 06:42:12;;;;;;;8.57;6.50;;;;;;;;;;4972727;28;20399;-63
2021/09/20 06:44:39;;;;;;;6.50;5.90;;;;;;;;;;4972597;28;20105;-67
2021/09/20 06:47:06;;;;;;;9.93;6.65;;;;;;;;;;4972184;28;20138;-66
2021/09/20 06:49:33;;;;;;;7.55;5.75;;;;;;;;;;4971596;28;20046;-66
2021/09/20 06:52:00;;;;;;;7.82;5.70;;;;;;;;;;4970941;28;20137;-65
2021/09/20 06:54:27;;;;;;;11.07;6.50;;;;;;;;;;4970646;28;20051;-65
2021/09/20 06:56:53;;;;;;;9.65;6.45;;;;;;;;;;4970412;28;20087;-65
2021/09/20 06:59:20;;;;;;;8.07;6.07;;;;;;;;;;4971816;28;20055;-65
2021/09/20 07:01:46;;;;;;;9.45;6.82;;;;;;;;;;4972293;28;20050;-64
2021/09/20 07:04:13;;;;;;;7.65;6.10;;;;;;;;;;4972522;28;20101;-65
2021/09/20 07:06:40;;;;;;;7.07;6.10;;;;;;;;;;4974568;28;20065;-65
2021/09/20 07:09:07;;;;;;;10.93;6.53;;;;;;;;;;4975907;28;20054;-64
2021/09/20 07:11:33;;;;;;;10.05;6.10;;;;;;;;;;4975879;28;20050;-64
2021/09/20 07:14:00;;;;;;;7.68;6.13;;;;;;;;;;4975642;28;20054;-65
2021/09/20 07:16:27;;;;;;;7.55;5.90;;;;;;;;;;4975792;28;20047;-64
2021/09/20 07:18:54;;;;;;;7.53;6.30;;;;;;;;;;4975503;28;20094;-65
2021/09/20 07:21:23;;;;;;;8.68;6.35;;;;;;;;;;4975766;28;20125;-65
2021/09/20 07:23:51;;;;;;;9.93;7.07;;;;;;;;;;4975877;28;20568;-65
2021/09/20 07:26:19;;;;;;;9.23;6.90;;;;;;;;;;4975563;28;20054;-64
2021/09/20 07:28:45;;;;;;;8.48;6.30;;;;;;;;;;4958330;28;20471;-64
2021/09/20 07:31:12;;;;;;;9.85;6.88;;;;;;;;;;4975486;28;20493;-65
2021/09/20 07:33:39;;;;;;;9.43;6.53;;;;;;;;;;4975451;28;20050;-64
2021/09/20 07:36:06;;;;;;;9.57;7.47;;;;;;;;;;4975495;28;20124;-64
2021/09/20 07:38:33;;;;;;;10.55;7.15;;;;;;;;;;4975474;28;20058;-64
2021/09/20 07:41:00;;;;;;;8.88;7.97;;;;;;;;;;4975166;28;20082;-64
2021/09/20 07:43:29;;;;;;;8.02;6.80;;;;;;;;;;4975247;28;20090;-64
2021/09/20 07:45:56;;;;;;;11.07;6.60;;;;;;;;;;4958027;28;20065;-62
2021/09/20 07:48:23;;;;;;;9.52;7.80;;;;;;;;;;4975370;28;20106;-62
2021/09/20 07:50:50;;;;;;;7.53;6.63;;;;;;;;;;4974994;28;20056;-62
2021/09/20 07:53:17;;;;;;;8.95;6.85;;;;;;;;;;4975147;28;20565;-63
2021/09/20 07:55:44;;;;;;;8.98;6.63;;;;;;;;;;4975012;28;20054;-63
2021/09/20 07:58:12;;;;;;;9.38;7.05;;;;;;;;;;4975207;28;20055;-63
2021/09/20 08:00:40;;;;;;;9.77;7.00;;;;;;;;;;4974948;28;20526;-64
2021/09/20 08:03:09;;;;;;;8.63;6.85;;;;;;;;;;4975063;28;20078;-64
2021/09/20 08:05:38;;;;;;;11.32;7.68;;;;;;;;;;4974567;28;20047;-63
2021/09/20 08:08:04;;;;;;;12.65;8.25;;;;;;;;;;4974889;28;20104;-63
2021/09/20 08:10:35;;;;;;;13.55;7.25;;;;;;;;;;4974652;28;20050;-64
2021/09/20 08:13:05;;;;;;;8.93;7.40;;;;;;;;;;4974741;28;20510;-64
2021/09/20 08:15:31;;;;;;;9.40;7.60;;;;;;;;;;4974590;28;20043;-63
2021/09/20 08:17:58;;;;;;;10.68;7.05;;;;;;;;;;4974815;28;20474;-63
2021/09/20 08:20:25;;;;;;;6.97;6.25;;;;;;;;;;4974539;28;20073;-63
2021/09/20 08:22:52;;;;;;;8.05;7.18;;;;;;;;;;4974493;28;20469;-64
2021/09/20 08:25:23;;;;;;;11.25;6.93;;;;;;;;;;4974738;28;20105;-63
2021/09/20 08:27:50;;;;;;;8.73;6.93;;;;;;;;;;4974496;28;20106;-63
2021/09/20 08:30:18;;;;;;;7.35;6.45;;;;;;;;;;4974387;28;20059;-62
2021/09/20 08:32:45;;;;;;;8.88;6.35;;;;;;;;;;4973296;28;20055;-62
2021/09/20 08:35:12;;;;;;;7.07;6.38;;;;;;;;;;4974267;28;20047;-64
2021/09/20 08:37:39;;;;;;;7.50;6.45;;;;;;;;;;4974238;28;20097;-63
2021/09/20 08:40:06;;;;;;;8.65;6.43;;;;;;;;;;4974095;28;20223;-64
2021/09/20 08:42:36;;;;;;;7.50;6.80;;;;;;;;;;4974303;28;20051;-64
2021/09/20 08:45:05;;;;;;;9.30;6.05;;;;;;;;;;4974178;28;20126;-65
2021/09/20 08:47:32;;;;;;;7.45;6.10;;;;;;;;;;4956981;28;20398;-64
2021/09/20 08:49:59;;;;;;;7.10;6.18;;;;;;;;;;4973784;28;20050;-65
2021/09/20 08:52:26;;;;;;;9.30;6.97;;;;;;;;;;4956996;28;20121;-64
2021/09/20 08:54:53;;;;;;;9.88;6.60;;;;;;;;;;4956819;28;20050;-65
2021/09/20 08:57:20;;;;;;;9.57;6.88;;;;;;;;;;4973844;28;20055;-65
2021/09/20 08:59:47;;;;;;;8.15;6.70;;;;;;;;;;4973629;28;20422;-63
2021/09/20 09:02:15;;;;;;;9.07;6.20;;;;;;;;;;4973793;28;20054;-62
2021/09/20 09:04:43;;;;;;;8.70;6.57;;;;;;;;;;4973878;28;20131;-63
2021/09/20 09:07:12;;;;;;;9.45;7.80;;;;;;;;;;4973266;28;20466;-63
2021/09/20 09:09:43;;;;;;;7.20;6.43;;;;;;;;;;4973482;28;20094;-63
2021/09/20 09:12:26;;;;;;;8.77;6.78;;;;;;;;;;4973984;28;20461;-63
2021/09/20 09:14:55;;;;;;;9.23;6.65;;;;;;;;;;4973603;28;20097;-63
2021/09/20 09:17:31;;;;;;;10.10;8.00;;;;;;;;;;4973691;28;20050;-63
2021/09/20 09:20:18;;;;;;;10.07;8.27;;;;;;;;;;4973444;28;20058;-63
2021/09/20 09:22:53;;;;;;;11.10;8.38;;;;;;;;;;4973490;28;20050;-63
2021/09/20 09:25:24;;;;;;;8.30;6.75;;;;;;;;;;4973575;28;20051;-63
2021/09/20 09:27:53;;;;;;;8.27;7.13;;;;;;;;;;4973391;28;20089;-63
2021/09/20 09:30:25;;;;;;;11.40;8.30;;;;;;;;;;4973161;28;20063;-63
2021/09/20 09:33:13;;;;;;;13.63;9.23;;;;;;;;;;4973299;28;20050;-63
2021/09/20 09:35:44;;;;;;;11.07;8.50;;;;;;;;;;4973258;28;20043;-63
2021/09/20 09:38:11;;;;;;;11.43;8.30;;;;;;;;;;4973520;28;20488;-63
2021/09/20 09:40:59;;;;;;;10.70;8.02;;;;;;;;;;4973005;28;20470;-63
2021/09/20 09:43:30;;;;;;;11.30;8.93;;;;;;;;;;4973262;28;20522;-63
2021/09/20 09:45:59;;;;;;;10.25;8.32;;;;;;;;;;4973032;28;20410;-63
2021/09/20 09:48:32;;;;;;;10.68;9.07;;;;;;;;;;4940275;28;20053;-63
2021/09/20 09:51:00;;;;;;;10.93;9.52;;;;;;;;;;4972827;28;20054;-64
2021/09/20 09:53:27;;;;;;;10.35;8.63;;;;;;;;;;4973017;28;20046;-63
2021/09/20 09:55:55;;;;;;;9.77;8.25;;;;;;;;;;4972751;28;20498;-63
2021/09/20 09:58:22;;;;;;;11.98;9.75;;;;;;;;;;4956048;28;20503;-63
2021/09/20 10:00:49;;;;;;;10.73;9.25;;;;;;;;;;4972675;28;20081;-63
2021/09/20 10:03:16;;;;;;;11.77;9.15;;;;;;;;;;4972973;28;20072;-63
2021/09/20 10:05:57;;;;;;;13.85;9.88;;;;;;;;;;4955644;28;20054;-63
2021/09/20 10:08:24;;;;;;;14.95;9.73;;;;;;;;;;4973092;28;20117;-63
2021/09/20 10:10:51;;;;;;;12.98;10.02;;;;;;;;;;4955592;28;20050;-63
2021/09/20 10:13:17;;;;;;;18.40;11.50;;;;;;;;;;4955739;28;20102;-63
2021/09/20 10:15:44;;;;;;;13.82;10.07;;;;;;;;;;4955622;28;20051;-63
2021/09/20 10:18:10;;;;;;;11.57;9.05;;;;;;;;;;4955661;28;20074;-63
2021/09/20 10:20:37;;;;;;;14.48;9.00;;;;;;;;;;4939662;28;20110;-63
2021/09/20 10:23:04;;;;;;;12.77;9.55;;;;;;;;;;4972585;28;20050;-63
2021/09/20 10:25:31;;;;;;;10.88;9.00;;;;;;;;;;4972667;28;20047;-63
2021/09/20 10:27:58;;;;;;;12.10;9.32;;;;;;;;;;4972633;28;20051;-63
2021/09/20 10:30:32;;;;;;;10.75;7.95;;;;;;;;;;4972464;28;20469;-63
2021/09/20 10:33:04;;;;;;;10.95;8.35;;;;;;;;;;4972599;28;20502;-63
2021/09/20 10:35:38;;;;;;;11.70;9.57;;;;;;;;;;4972665;28;20096;-63
2021/09/20 10:38:13;;;;;;;11.95;9.10;;;;;;;;;;4972709;28;20055;-63
2021/09/20 10:40:40;;;;;;;14.50;10.13;;;;;;;;;;4973316;28;20097;-63
2021/09/20 10:43:07;;;;;;;12.38;8.80;;;;;;;;;;4976440;28;20113;-63
2021/09/20 10:46:02;;;;;;;13.52;9.45;;;;;;;;;;4976365;28;20047;-62
2021/09/20 10:48:32;;;;;;;9.77;8.30;;;;;;;;;;4974344;28;20129;-63
2021/09/20 10:51:23;;;;;;;9.90;8.30;;;;;;;;;;4975680;28;20051;-63
2021/09/20 10:54:12;;;;;;;13.82;8.63;;;;;;;;;;4961650;28;20402;-62
2021/09/20 10:56:39;;;;;;;11.13;8.82;;;;;;;;;;5029489;23;20046;-73
2021/09/20 10:59:07;;;;;;;10.90;9.02;;;;;;;;;;5015228;28;20467;-73
2021/09/20 11:01:36;;;;;;;14.85;8.40;;;;;;;;;;5015150;28;20046;-73
2021/09/20 11:04:30;;;;;;;12.00;8.98;;;;;;;;;;5015052;28;20057;-73
2021/09/20 11:07:03;;;;;;;13.82;9.65;;;;;;;;;;5014955;28;20050;-73
2021/09/20 11:09:31;;;;;;;11.50;8.38;;;;;;;;;;5014885;28;20496;-73
2021/09/20 11:12:05;;;;;;;11.20;8.20;;;;;;;;;;5014904;28;20054;-73
2021/09/20 11:14:49;;;;;;;10.52;8.40;;;;;;;;;;5015025;28;20056;-73
2021/09/20 11:17:17;;;;;;;10.50;8.38;;;;;;;;;;5015269;28;20420;-73
2021/09/20 11:19:45;;;;;;;13.80;8.45;;;;;;;;;;5014636;28;20050;-73
2021/09/20 11:22:15;;;;;;;9.85;7.88;;;;;;;;;;5015043;28;20111;-73
2021/09/20 11:25:02;;;;;;;12.77;8.18;;;;;;;;;;5014689;28;20104;-73
2021/09/20 11:27:36;;;;;;;9.40;7.10;;;;;;;;;;5014837;28;20049;-73
2021/09/20 11:30:17;;;;;;;12.80;8.07;;;;;;;;;;5014569;28;20675;-73
2021/09/20 11:33:08;;;;;;;10.73;8.65;;;;;;;;;;5014592;28;20109;-73
2021/09/20 11:35:35;;;;;;;12.52;8.93;;;;;;;;;;5014607;28;20496;-73
2021/09/20 11:38:04;;;;;;;11.05;8.02;;;;;;;;;;5014453;28;20455;-73
2021/09/20 11:40:32;;;;;;;9.52;8.43;;;;;;;;;;5014428;28;20085;-73
2021/09/20 11:43:03;;;;;;;8.98;7.97;;;;;;;;;;5014381;28;20052;-74
2021/09/20 11:45:35;;;;;;;11.90;8.00;;;;;;;;;;5013274;28;20127;-73
2021/09/20 11:48:18;;;;;;;10.63;8.07;;;;;;;;;;5014500;28;20420;-73
2021/09/20 11:50:45;;;;;;;11.10;8.40;;;;;;;;;;5014499;28;20496;-73
2021/09/20 11:53:14;;;;;;;10.07;7.95;;;;;;;;;;5014270;28;20460;-73
2021/09/20 11:55:43;;;;;;;9.30;8.30;;;;;;;;;;5013937;28;20050;-73
2021/09/20 11:58:12;;;;;;;10.30;8.05;;;;;;;;;;5014323;28;20405;-73
2021/09/20 12:00:41;;;;;;;9.23;7.63;;;;;;;;;;5013879;28;20053;-73
2021/09/20 12:03:10;;;;;;;8.98;8.07;;;;;;;;;;5014119;28;20129;-73
2021/09/20 12:05:43;;;;;;;9.93;7.78;;;;;;;;;;5013940;28;20053;-73
2021/09/20 12:08:14;;;;;;;12.43;8.77;;;;;;;;;;5014071;28;20108;-72
2021/09/20 12:10:45;;;;;;;11.30;8.32;;;;;;;;;;5013703;28;20072;-73
2021/09/20 12:13:23;;;;;;;10.57;7.65;;;;;;;;;;5014004;28;20124;-73
2021/09/20 12:15:52;;;;;;;8.35;7.13;;;;;;;;;;5013571;28;20108;-73
2021/09/20 12:18:25;;;;;;;11.48;7.95;;;;;;;;;;5013879;28;20050;-73
2021/09/20 12:21:00;;;;;;;9.80;8.32;;;;;;;;;;5013468;28;20053;-73
2021/09/20 12:23:29;;;;;;;9.43;7.57;;;;;;;;;;5013686;28;20058;-73
2021/09/20 12:25:57;;;;;;;8.57;6.93;;;;;;;;;;5013672;28;20572;-73
2021/09/20 12:28:37;;;;;;;9.23;7.00;;;;;;;;;;5013610;28;20420;-73
2021/09/20 12:31:07;;;;;;;8.40;6.90;;;;;;;;;;5012292;28;20108;-73
2021/09/20 12:33:56;;;;;;;7.70;6.85;;;;;;;;;;5013534;28;20050;-73
2021/09/20 12:36:41;;;;;;;8.45;6.65;;;;;;;;;;5013553;28;20104;-73
2021/09/20 12:39:30;;;;;;;8.10;7.25;;;;;;;;;;5013488;28;20108;-74
2021/09/20 12:41:58;;;;;;;7.05;6.38;;;;;;;;;;5013339;28;20050;-73
2021/09/20 12:44:35;;;;;;;10.43;6.75;;;;;;;;;;5013424;28;20455;-73
2021/09/20 12:47:06;;;;;;;7.80;6.40;;;;;;;;;;5012033;28;20492;-74
2021/09/20 12:49:34;;;;;;;6.80;6.07;;;;;;;;;;5013600;28;20504;-73
2021/09/20 12:52:01;;;;;;;8.05;6.70;;;;;;;;;;5018571;28;20057;-73
2021/09/20 12:54:30;;;;;;;9.05;7.15;;;;;;;;;;5012712;28;20100;-73
2021/09/20 12:57:13;;;;;;;8.27;7.10;;;;;;;;;;5013040;28;20049;-74
2021/09/20 12:59:40;;;;;;;9.55;7.40;;;;;;;;;;5014117;28;20531;-73
2021/09/20 13:02:11;;;;;;;8.65;7.57;;;;;;;;;;5016124;28;20049;-74
2021/09/20 13:04:40;;;;;;;9.52;7.15;;;;;;;;;;5019850;28;20133;-73
2021/09/20 13:07:21;;;;;;;8.73;6.95;;;;;;;;;;5016636;28;20488;-73
2021/09/20 13:10:06;;;;;;;7.43;6.60;;;;;;;;;;5033793;28;20046;-73
2021/09/20 13:12:49;;;;;;;9.80;6.97;;;;;;;;;;5033622;28;20061;-73
2021/09/20 13:15:26;;;;;;;9.75;6.25;;;;;;;;;;5033816;28;20050;-73
2021/09/20 13:17:54;;;;;;;8.25;7.45;;;;;;;;;;5012666;28;20101;-73
2021/09/20 13:20:29;;;;;;;6.82;6.22;;;;;;;;;;5011218;28;20050;-73
2021/09/20 13:23:02;;;;;;;6.80;6.20;;;;;;;;;;5012568;28;20057;-73
2021/09/20 13:25:28;;;;;;;;;;;;;;;;;;5013258;28;20046;-74
2021/09/20 13:27:57;;;;;;;6.10;5.47;;;;;;;;;;5012415;28;20430;-73
2021/09/20 13:30:23;;;;;;;6.60;5.57;;;;;;;;;;5012379;28;20100;-74
2021/09/20 13:32:51;;;;;;;6.97;5.88;;;;;;;;;;5012406;28;20050;-73
2021/09/20 13:35:43;;;;;;;6.63;6.03;;;;;;;;;;5012267;28;20547;-74
2021/09/20 13:38:11;;;;;;;6.53;5.82;;;;;;;;;;5011193;28;20107;-73
2021/09/20 13:40:38;;;;;;;7.97;7.18;;;;;;;;;;5012262;28;20479;-73
2021/09/20 13:43:05;;;;;;;7.40;6.68;;;;;;;;;;5012445;28;20054;-74
2021/09/20 13:45:32;;;;;;;5.47;4.97;;;;;;;;;;5011307;28;20464;-73
2021/09/20 13:48:08;;;;;;;7.60;6.32;;;;;;;;;;5012087;28;20104;-74
2021/09/20 13:50:34;;;;;;;11.23;6.47;;;;;;;;;;5010848;28;20504;-73
2021/09/20 13:53:01;;;;;;;9.80;5.93;;;;;;;;;;5012135;28;20053;-73
2021/09/20 13:55:28;;;;;;;7.25;5.97;;;;;;;;;;5011954;28;20092;-73
2021/09/20 13:57:55;;;;;;;7.15;6.30;;;;;;;;;;5011980;28;20100;-73
2021/09/20 14:00:22;;;;;;;5.90;5.40;;;;;;;;;;5011976;28;20054;-73
2021/09/20 14:02:49;;;;;;;6.30;5.70;;;;;;;;;;5012175;28;20053;-74
2021/09/20 14:05:16;;;;;;;7.20;6.50;;;;;;;;;;5012060;28;20052;-73
2021/09/20 14:07:43;;;;;;;8.40;5.50;;;;;;;;;;5011901;28;20058;-73
2021/09/20 14:10:15;;;;;;;5.93;5.25;;;;;;;;;;5011789;28;20049;-73
2021/09/20 14:12:42;;;;;;;6.00;5.50;;;;;;;;;;5010688;28;20058;-73
2021/09/20 14:15:11;;;;;;;6.10;5.05;;;;;;;;;;5013713;28;20085;-73
2021/09/20 14:17:39;;;;;;;5.45;4.72;;;;;;;;;;5016138;28;20057;-73
2021/09/20 14:20:07;;;;;;;6.65;5.88;;;;;;;;;;5014447;28;20508;-73
2021/09/20 14:22:34;;;;;;;6.25;5.65;;;;;;;;;;5015968;28;20049;-73
2021/09/20 14:25:02;;;;;;;6.47;5.82;;;;;;;;;;5015756;28;20398;-73
2021/09/20 14:27:29;;;;;;;5.75;5.25;;;;;;;;;;5015917;28;20116;-73
2021/09/20 14:29:56;;;;;;;5.75;5.25;;;;;;;;;;5015434;28;20594;-73
2021/09/20 14:32:22;;;;;;;6.40;5.80;;;;;;;;;;5015900;28;20049;-73
2021/09/20 14:34:49;;;;;;;6.72;5.90;;;;;;;;;;5015499;28;20568;-73
2021/09/20 14:37:16;;;;;;;6.38;5.60;;;;;;;;;;5015701;28;20408;-73
2021/09/20 14:39:43;;;;;;;6.68;5.97;;;;;;;;;;5015324;28;20049;-73
2021/09/20 14:42:10;;;;;;;6.47;5.88;;;;;;;;;;5015643;28;20045;-73
2021/09/20 14:44:37;;;;;;;8.05;5.70;;;;;;;;;;5015576;28;20057;-73
2021/09/20 14:47:05;;;;;;;7.05;5.97;;;;;;;;;;5015498;28;20546;-73
2021/09/20 14:49:32;;;;;;;6.18;5.57;;;;;;;;;;5015391;28;20054;-73